Time;durP1;ratioP1;P1;durP2;ratioP2;P2;SDS_P1;SDS_P2;PMS_P1;PMS_P2;Temp;Humidity;BMP_temperature;BMP_pressure;BME280_temperature;BME280_humidity;BME280_pressure;Samples;Min_cycle;Max_cycle;Signal;HPM_P1;HPM_P2
2021/10/20 00:00:14;;;;;;;12.73;8.20;;;;;;;;;;5072670;28;20231;-73
2021/10/20 00:02:41;;;;;;;21.67;8.93;;;;;;;;;;5072249;28;20221;-73
2021/10/20 00:05:08;;;;;;;12.50;7.87;;;;;;;;;;5073275;28;20229;-73
2021/10/20 00:07:34;;;;;;;10.93;7.13;;;;;;;;;;5073362;28;20296;-73
2021/10/20 00:10:00;;;;;;;12.30;8.20;;;;;;;;;;5073631;28;20205;-72
2021/10/20 00:12:27;;;;;;;15.60;8.53;;;;;;;;;;5073532;28;20225;-74
2021/10/20 00:14:53;;;;;;;14.87;8.93;;;;;;;;;;5072812;28;20232;-73
2021/10/20 00:17:19;;;;;;;11.67;8.00;;;;;;;;;;5073354;28;20205;-73
2021/10/20 00:19:48;;;;;;;18.47;8.60;;;;;;;;;;5072486;28;20232;-73
2021/10/20 00:22:15;;;;;;;12.20;8.03;;;;;;;;;;5073350;28;20347;-73
2021/10/20 00:24:41;;;;;;;13.97;8.23;;;;;;;;;;5076396;28;20307;-72
2021/10/20 00:27:08;;;;;;;12.80;7.90;;;;;;;;;;5093449;28;20204;-72
2021/10/20 00:29:34;;;;;;;13.73;8.27;;;;;;;;;;5092972;28;20245;-71
2021/10/20 00:32:01;;;;;;;13.07;8.47;;;;;;;;;;5093177;28;20710;-72
2021/10/20 00:34:27;;;;;;;11.90;8.00;;;;;;;;;;5093306;28;20208;-72
2021/10/20 00:36:53;;;;;;;10.37;8.33;;;;;;;;;;5093326;28;20236;-71
2021/10/20 00:39:20;;;;;;;14.97;8.80;;;;;;;;;;5092850;28;20271;-72
2021/10/20 00:41:46;;;;;;;11.27;8.17;;;;;;;;;;5091254;28;20316;-72
2021/10/20 00:44:13;;;;;;;14.13;8.47;;;;;;;;;;5092912;28;20291;-72
2021/10/20 00:46:39;;;;;;;14.73;8.40;;;;;;;;;;5083731;28;20209;-72
2021/10/20 00:49:05;;;;;;;13.13;8.63;;;;;;;;;;5072678;28;20209;-72
2021/10/20 00:51:32;;;;;;;14.27;8.60;;;;;;;;;;5071892;28;20232;-71
2021/10/20 00:53:58;;;;;;;11.40;8.30;;;;;;;;;;5072288;28;20211;-70
2021/10/20 00:56:25;;;;;;;13.43;8.90;;;;;;;;;;5072531;28;20208;-72
2021/10/20 00:58:52;;;;;;;13.87;8.90;;;;;;;;;;5072356;28;20201;-72
2021/10/20 01:34:46;;;;;;;13.17;8.00;;;;;;;-143.37;100.00;65745.06;5110132;27;20487;-72
2021/10/20 01:37:13;;;;;;;16.50;9.00;;;;;;;-143.37;100.00;65745.06;5110099;28;20314;-73
2021/10/20 01:39:40;;;;;;;13.77;8.47;;;;;;;-143.37;100.00;65745.06;5110004;28;20290;-74
2021/10/20 01:42:06;;;;;;;14.10;8.23;;;;;;;-143.37;100.00;65745.06;5111107;28;20776;-73
2021/10/20 01:44:33;;;;;;;14.00;8.00;;;;;;;-143.37;100.00;65745.06;5110629;28;20206;-73
2021/10/20 01:46:59;;;;;;;13.53;8.93;;;;;;;-143.37;100.00;65745.06;5089299;28;20793;-72
2021/10/20 01:49:26;;;;;;;14.03;9.00;;;;;;;-143.37;100.00;65745.06;5087389;28;20206;-71
2021/10/20 01:51:52;;;;;;;18.57;9.03;;;;;;;-143.37;100.00;65745.06;5088854;28;20224;-72
2021/10/20 01:54:20;;;;;;;12.50;7.60;;;;;;;-143.37;100.00;65745.06;5088872;28;20719;-72
2021/10/20 01:56:47;;;;;;;12.20;7.97;;;;;;;-143.37;100.00;65745.06;5089131;28;20292;-72
2021/10/20 01:59:14;;;;;;;14.23;8.13;;;;;;;-143.37;100.00;65745.06;5089009;28;20240;-72
2021/10/20 02:01:41;;;;;;;11.97;7.53;;;;;;;-143.37;100.00;65745.06;5088167;28;20314;-72
2021/10/20 02:04:10;;;;;;;13.80;8.63;;;;;;;-143.37;100.00;65745.06;5088764;28;20234;-71
2021/10/20 02:06:37;;;;;;;12.43;8.43;;;;;;;-143.37;100.00;65745.06;5089144;28;20218;-72
2021/10/20 02:09:07;;;;;;;13.40;8.23;;;;;;;-143.37;100.00;65745.06;5088714;28;20205;-73
2021/10/20 02:11:34;;;;;;;12.20;8.00;;;;;;;-143.37;100.00;65745.06;5088457;28;20232;-72
2021/10/20 02:14:03;;;;;;;13.87;8.07;;;;;;;-143.37;100.00;65745.06;5089681;28;20311;-72
2021/10/20 02:16:30;;;;;;;14.17;8.67;;;;;;;-143.37;100.00;65745.06;5087456;28;20758;-73
2021/10/20 02:18:57;;;;;;;14.77;8.37;;;;;;;-143.37;100.00;65745.06;5089680;28;20681;-71
2021/10/20 02:21:24;;;;;;;13.40;8.07;;;;;;;-143.37;100.00;65745.06;5088775;28;20267;-72
2021/10/20 02:23:51;;;;;;;12.27;8.17;;;;;;;-143.37;100.00;65745.06;5090328;28;20331;-73
2021/10/20 02:26:18;;;;;;;13.60;7.90;;;;;;;-143.37;100.00;65745.06;5106894;28;20291;-72
2021/10/20 02:28:44;;;;;;;15.57;7.97;;;;;;;-143.37;100.00;65745.06;5110210;28;20204;-73
2021/10/20 02:31:12;;;;;;;12.63;7.93;;;;;;;-143.37;100.00;65745.06;5109094;28;20307;-72
2021/10/20 02:33:38;;;;;;;13.53;8.67;;;;;;;-143.37;100.00;65745.06;5109569;28;20235;-72
2021/10/20 02:36:05;;;;;;;12.87;8.67;;;;;;;-143.37;100.00;65745.06;5108524;28;20231;-72
2021/10/20 02:38:32;;;;;;;10.90;7.80;;;;;;;-143.37;100.00;65745.06;5108986;28;20294;-72
2021/10/20 02:40:58;;;;;;;11.90;8.07;;;;;;;-143.37;100.00;65745.06;5107881;28;20587;-72
2021/10/20 02:43:25;;;;;;;14.93;9.07;;;;;;;-143.37;100.00;65745.06;5108612;28;20480;-73
2021/10/20 02:45:52;;;;;;;17.23;8.23;;;;;;;-143.37;100.00;65745.06;5093887;28;20208;-72
2021/10/20 02:48:21;;;;;;;12.50;8.20;;;;;;;-143.37;100.00;65745.06;5074875;28;20247;-72
2021/10/20 02:50:48;;;;;;;12.57;8.33;;;;;;;-143.37;100.00;65745.06;5073671;28;20389;-73
2021/10/20 02:53:14;;;;;;;13.57;8.47;;;;;;;-143.37;100.00;65745.06;5074525;28;20319;-73
2021/10/20 02:55:41;;;;;;;11.07;7.67;;;;;;;-143.37;100.00;65745.06;5074127;28;20223;-74
2021/10/20 02:58:08;;;;;;;16.70;8.37;;;;;;;-143.37;100.00;65745.06;5056417;28;20297;-73
2021/10/20 03:00:34;;;;;;;14.50;8.93;;;;;;;-143.37;100.00;65745.06;5073531;28;20816;-70
2021/10/20 03:03:01;;;;;;;12.77;8.20;;;;;;;-143.37;100.00;65745.06;5074047;28;20233;-73
2021/10/20 03:05:27;;;;;;;13.20;8.40;;;;;;;-143.37;100.00;65745.06;5073896;28;20299;-73
2021/10/20 03:07:56;;;;;;;14.00;8.57;;;;;;;-143.37;100.00;65745.06;5074302;28;20201;-72
2021/10/20 03:10:23;;;;;;;12.43;8.27;;;;;;;-143.37;100.00;65745.06;5073712;28;20215;-74
2021/10/20 03:12:49;;;;;;;14.63;8.70;;;;;;;-143.37;100.00;65745.06;5073801;28;20614;-71
2021/10/20 03:15:16;;;;;;;15.10;8.87;;;;;;;-143.37;100.00;65745.06;5073138;28;20297;-73
2021/10/20 03:17:42;;;;;;;15.43;9.00;;;;;;;-143.37;100.00;65745.06;5072786;28;20308;-70
2021/10/20 03:20:10;;;;;;;13.47;8.30;;;;;;;-143.37;100.00;65745.06;5073238;28;20288;-72
2021/10/20 03:22:42;;;;;;;14.10;8.67;;;;;;;-143.37;100.00;65745.06;5074130;28;20312;-70
2021/10/20 03:25:10;;;;;;;14.87;9.03;;;;;;;-143.37;100.00;65745.06;5080821;28;20199;-72
2021/10/20 03:27:43;;;;;;;16.90;9.43;;;;;;;-143.37;100.00;65745.06;5093805;28;20291;-72
2021/10/20 03:30:11;;;;;;;13.50;8.37;;;;;;;-143.37;100.00;65745.06;5093341;28;20209;-72
2021/10/20 03:32:37;;;;;;;16.73;9.30;;;;;;;-143.37;100.00;65745.06;5093809;28;20307;-72
2021/10/20 03:35:05;;;;;;;18.33;8.37;;;;;;;-143.37;100.00;65745.06;5094248;28;20311;-72
2021/10/20 03:37:32;;;;;;;13.77;8.27;;;;;;;-143.37;100.00;65745.06;5094233;28;20300;-72
2021/10/20 03:39:58;;;;;;;18.23;9.90;;;;;;;-143.37;100.00;65745.06;5092034;28;20295;-72
2021/10/20 03:42:25;;;;;;;20.40;9.30;;;;;;;-143.37;100.00;65745.06;5093526;28;20323;-70
2021/10/20 03:44:51;;;;;;;14.70;9.20;;;;;;;-143.37;100.00;65745.06;5075772;28;20669;-71
2021/10/20 03:47:19;;;;;;;12.13;8.40;;;;;;;-143.37;100.00;65745.06;5077774;28;20208;-72
2021/10/20 03:49:47;;;;;;;13.70;9.07;;;;;;;-143.37;100.00;65745.06;5072624;28;20259;-72
2021/10/20 03:52:14;;;;;;;13.77;8.70;;;;;;;-143.37;100.00;65745.06;5073170;28;20225;-72
2021/10/20 03:54:41;;;;;;;13.83;8.73;;;;;;;-143.37;100.00;65745.06;5073121;28;20293;-71
2021/10/20 03:57:08;;;;;;;16.30;9.00;;;;;;;-143.37;100.00;65745.06;5072016;28;20587;-74
2021/10/20 03:59:37;;;;;;;13.30;8.53;;;;;;;-143.37;100.00;65745.06;5072454;28;20223;-73
2021/10/20 04:02:04;;;;;;;13.63;8.73;;;;;;;-143.37;100.00;65745.06;5073392;28;20252;-73
2021/10/20 04:04:30;;;;;;;14.23;9.03;;;;;;;-143.37;100.00;65745.06;5072140;28;20225;-73
2021/10/20 04:06:57;;;;;;;13.33;8.77;;;;;;;-143.37;100.00;65745.06;5072270;28;20248;-73
2021/10/20 04:09:23;;;;;;;12.67;8.40;;;;;;;-143.37;100.00;65745.06;5071484;28;20202;-73
2021/10/20 04:11:50;;;;;;;12.47;8.83;;;;;;;-143.37;100.00;65745.06;5072874;28;20778;-72
2021/10/20 04:14:16;;;;;;;11.63;7.90;;;;;;;-143.37;100.00;65745.06;5073422;28;20716;-73
2021/10/20 04:16:43;;;;;;;16.30;8.97;;;;;;;-143.37;100.00;65745.06;5073542;28;20204;-73
2021/10/20 04:19:10;;;;;;;12.97;8.00;;;;;;;-143.37;100.00;65745.06;5074542;28;20274;-73
2021/10/20 04:21:36;;;;;;;10.93;8.13;;;;;;;-143.37;100.00;65745.06;5073706;28;20686;-72
2021/10/20 04:24:03;;;;;;;12.17;8.07;;;;;;;-143.37;100.00;65745.06;5074958;28;20208;-72
2021/10/20 04:26:30;;;;;;;15.70;8.87;;;;;;;-143.37;100.00;65745.06;5103305;28;20295;-70
2021/10/20 04:28:56;;;;;;;13.27;8.37;;;;;;;-143.37;100.00;65745.06;5108810;28;20195;-71
2021/10/20 04:31:23;;;;;;;15.10;8.63;;;;;;;-143.37;100.00;65745.06;5096489;28;20217;-74
2021/10/20 04:33:49;;;;;;;17.43;9.50;;;;;;;-143.37;100.00;65745.06;5081222;28;20221;-72
2021/10/20 04:36:16;;;;;;;13.03;7.87;;;;;;;-143.37;100.00;65745.06;5072322;28;20205;-71
2021/10/20 04:38:42;;;;;;;14.03;8.80;;;;;;;-143.37;100.00;65745.06;5072264;28;20215;-71
2021/10/20 04:41:09;;;;;;;12.30;8.03;;;;;;;-143.37;100.00;65745.06;5076759;28;20225;-73
2021/10/20 04:43:37;;;;;;;12.63;8.03;;;;;;;-143.37;100.00;65745.06;5081216;28;20232;-73
2021/10/20 04:46:03;;;;;;;15.37;8.10;;;;;;;-143.37;100.00;65745.06;5077961;28;20223;-73
2021/10/20 04:48:30;;;;;;;12.83;7.97;;;;;;;-143.37;100.00;65745.06;5079828;28;20581;-73
2021/10/20 04:50:56;;;;;;;17.23;8.90;;;;;;;-143.37;100.00;65745.06;5078292;28;20741;-73
2021/10/20 04:53:23;;;;;;;11.77;8.40;;;;;;;-143.37;100.00;65745.06;5079253;28;20276;-73
2021/10/20 04:55:51;;;;;;;12.60;8.37;;;;;;;-143.37;100.00;65745.06;5084426;28;20205;-72
2021/10/20 04:58:18;;;;;;;12.37;8.50;;;;;;;-143.37;100.00;65745.06;5079816;28;20200;-73
2021/10/20 05:00:44;;;;;;;12.77;8.63;;;;;;;-143.37;100.00;65745.06;5091656;28;20208;-73
2021/10/20 05:03:11;;;;;;;13.30;7.87;;;;;;;-143.37;100.00;65745.06;5090831;28;20235;-73
2021/10/20 05:05:37;;;;;;;12.17;8.67;;;;;;;-143.37;100.00;65745.06;5090902;28;20203;-73
2021/10/20 05:08:04;;;;;;;10.50;7.97;;;;;;;-143.37;100.00;65745.06;5091782;28;20635;-72
2021/10/20 05:10:30;;;;;;;14.93;8.03;;;;;;;-143.37;100.00;65745.06;5091019;28;20204;-73
2021/10/20 05:12:57;;;;;;;13.03;8.67;;;;;;;-143.37;100.00;65745.06;5078901;28;20556;-72
2021/10/20 05:15:24;;;;;;;11.97;8.47;;;;;;;-143.37;100.00;65745.06;5074746;28;20313;-72
2021/10/20 05:17:51;;;;;;;14.97;8.57;;;;;;;-143.37;100.00;65745.06;5072052;28;20299;-73
2021/10/20 05:20:18;;;;;;;13.50;8.60;;;;;;;-143.37;100.00;65745.06;5070366;28;20670;-72
2021/10/20 05:22:44;;;;;;;14.73;8.63;;;;;;;-143.37;100.00;65745.06;5070858;28;20312;-72
2021/10/20 05:25:13;;;;;;;17.07;8.53;;;;;;;-143.37;100.00;65745.06;5079048;28;20296;-72
2021/10/20 05:27:40;;;;;;;16.80;9.00;;;;;;;-143.37;100.00;65745.06;5085728;28;20316;-73
2021/10/20 05:30:08;;;;;;;12.90;8.10;;;;;;;-143.37;100.00;65745.06;5079612;28;20217;-72
2021/10/20 05:32:34;;;;;;;14.53;8.50;;;;;;;-143.37;100.00;65745.06;5077550;28;20307;-71
2021/10/20 05:35:01;;;;;;;12.40;8.83;;;;;;;-143.37;100.00;65745.06;5071434;28;20229;-73
2021/10/20 05:37:28;;;;;;;13.50;8.67;;;;;;;-143.37;100.00;65745.06;5073300;28;20666;-74
2021/10/20 05:39:54;;;;;;;12.13;8.77;;;;;;;-143.37;100.00;65745.06;5079739;28;20225;-73
2021/10/20 05:42:21;;;;;;;15.57;9.10;;;;;;;-143.37;100.00;65745.06;5083533;28;20303;-72
2021/10/20 05:44:47;;;;;;;13.37;8.43;;;;;;;-143.37;100.00;65745.06;5081174;28;20193;-73
2021/10/20 05:47:15;;;;;;;13.77;8.90;;;;;;;-143.37;100.00;65745.06;5076620;28;20207;-71
2021/10/20 05:49:41;;;;;;;16.67;9.03;;;;;;;-143.37;100.00;65745.06;5071175;28;20232;-73
2021/10/20 05:52:08;;;;;;;12.80;7.87;;;;;;;-143.37;100.00;65745.06;5071912;28;20311;-72
2021/10/20 05:54:34;;;;;;;15.00;8.37;;;;;;;-143.37;100.00;65745.06;5071535;28;20268;-71
2021/10/20 05:57:01;;;;;;;12.87;8.27;;;;;;;-143.37;100.00;65745.06;5068767;28;21227;-71
2021/10/20 05:59:28;;;;;;;14.03;8.30;;;;;;;-143.37;100.00;65745.06;5086960;28;20288;-70
2021/10/20 06:01:54;;;;;;;13.23;8.00;;;;;;;-143.37;100.00;65745.06;5080368;28;20728;-70
2021/10/20 06:04:21;;;;;;;13.63;7.90;;;;;;;-143.37;100.00;65745.06;5088776;28;20279;-70
2021/10/20 06:06:48;;;;;;;12.77;7.47;;;;;;;-143.37;100.00;65745.06;5087980;28;20225;-70
2021/10/20 06:09:14;;;;;;;12.17;7.33;;;;;;;-143.37;100.00;65745.06;5087211;28;20209;-70
2021/10/20 06:11:41;;;;;;;10.73;6.53;;;;;;;-143.37;100.00;65745.06;5088402;28;20305;-70
2021/10/20 06:14:07;;;;;;;11.37;5.73;;;;;;;-143.37;100.00;65745.06;5087334;28;20304;-70
2021/10/20 06:16:36;;;;;;;7.80;5.43;;;;;;;-143.37;100.00;65745.06;5087504;28;20236;-71
2021/10/20 06:19:05;;;;;;;8.03;5.50;;;;;;;-143.37;100.00;65745.06;5088091;28;20251;-69
2021/10/20 06:21:33;;;;;;;9.50;5.93;;;;;;;-143.37;100.00;65745.06;5089943;28;20260;-72
2021/10/20 06:24:00;;;;;;;9.87;6.20;;;;;;;-143.37;100.00;65745.06;5091671;28;20240;-70
2021/10/20 06:26:26;;;;;;;11.37;6.03;;;;;;;-143.37;100.00;65745.06;5092509;28;20209;-71
2021/10/20 06:28:54;;;;;;;9.60;6.17;;;;;;;-143.37;100.00;65745.06;5092259;28;20236;-71
2021/10/20 06:31:21;;;;;;;9.53;5.63;;;;;;;-143.37;100.00;65745.06;5090389;28;20224;-70
2021/10/20 06:33:48;;;;;;;8.50;5.33;;;;;;;-143.37;100.00;65745.06;5092233;28;20212;-71
2021/10/20 06:36:28;;;;;;;9.13;5.38;;;;;;;-143.37;100.00;65745.06;5095828;28;20790;-71
2021/10/20 06:39:01;;;;;;;15.27;5.95;;;;;;;-143.37;100.00;65745.06;5096074;28;20212;-71
2021/10/20 06:41:28;;;;;;;9.27;5.13;;;;;;;-143.37;100.00;65745.06;5091830;28;20315;-71
2021/10/20 06:43:55;;;;;;;9.43;5.75;;;;;;;-143.37;100.00;65745.06;5091766;28;20204;-70
2021/10/20 06:46:22;;;;;;;8.60;5.72;;;;;;;-143.37;100.00;65745.06;5092503;28;20255;-71
2021/10/20 06:48:48;;;;;;;10.23;5.80;;;;;;;-143.37;100.00;65745.06;5092528;28;20205;-71
2021/10/20 06:51:15;;;;;;;8.63;5.75;;;;;;;-143.37;100.00;65745.06;5088461;28;20220;-71
2021/10/20 06:53:41;;;;;;;9.25;5.95;;;;;;;-143.37;100.00;65745.06;5083791;28;20292;-71
2021/10/20 06:56:08;;;;;;;7.22;5.00;;;;;;;-143.37;100.00;65745.06;5082968;28;20224;-71
2021/10/20 06:58:36;;;;;;;9.52;5.63;;;;;;;-143.37;100.00;65745.06;5085981;28;20235;-69
2021/10/20 07:01:03;;;;;;;8.60;5.95;;;;;;;-143.37;100.00;65745.06;5082157;28;20225;-71
2021/10/20 07:03:29;;;;;;;7.03;5.00;;;;;;;-143.37;100.00;65745.06;5085999;28;20698;-70
2021/10/20 07:05:56;;;;;;;8.00;5.53;;;;;;;-143.37;100.00;65745.06;5083860;28;20248;-71
2021/10/20 07:08:22;;;;;;;10.65;5.47;;;;;;;-143.37;100.00;65745.06;5087375;28;20233;-72
2021/10/20 07:10:49;;;;;;;6.85;5.10;;;;;;;-143.37;100.00;65745.06;5082582;28;20895;-71
2021/10/20 07:13:20;;;;;;;8.13;4.65;;;;;;;-143.37;100.00;65745.06;5082951;28;20207;-71
2021/10/20 07:15:47;;;;;;;5.75;4.57;;;;;;;-143.37;100.00;65745.06;5084101;28;20204;-70
2021/10/20 07:18:14;;;;;;;9.07;4.60;;;;;;;-143.37;100.00;65745.06;5081261;28;20216;-71
2021/10/20 07:20:40;;;;;;;5.90;4.03;;;;;;;-143.37;100.00;65745.06;5084518;28;20677;-71
2021/10/20 07:23:07;;;;;;;6.93;4.68;;;;;;;-143.37;100.00;65745.06;5082783;28;20217;-71
2021/10/20 07:25:34;;;;;;;6.13;4.60;;;;;;;-143.37;100.00;65745.06;5085861;28;20307;-70
2021/10/20 07:28:00;;;;;;;5.80;4.50;;;;;;;-143.37;100.00;65745.06;5083047;28;20300;-67
2021/10/20 07:30:27;;;;;;;6.80;4.40;;;;;;;-143.37;100.00;65745.06;5084132;28;20586;-71
2021/10/20 07:32:53;;;;;;;5.25;4.35;;;;;;;-143.37;100.00;65745.06;5082281;28;20755;-70
2021/10/20 07:35:20;;;;;;;7.13;4.50;;;;;;;-143.37;100.00;65745.06;5084515;28;20196;-71
2021/10/20 07:37:47;;;;;;;5.57;4.78;;;;;;;-143.37;100.00;65745.06;5084034;28;20197;-71
2021/10/20 07:40:15;;;;;;;6.00;3.70;;;;;;;-143.37;100.00;65745.06;5088702;28;20615;-69
2021/10/20 07:42:44;;;;;;;7.75;4.40;;;;;;;-143.37;100.00;65745.06;5093475;28;20336;-69
2021/10/20 07:45:14;;;;;;;6.18;4.05;;;;;;;-143.37;100.00;65745.06;5091276;28;20323;-69
2021/10/20 07:47:46;;;;;;;4.50;3.95;;;;;;;-143.37;100.00;65745.06;5076640;28;20280;-71
2021/10/20 07:50:14;;;;;;;6.03;4.50;;;;;;;-143.37;100.00;65745.06;5073513;28;20660;-68
2021/10/20 07:52:41;;;;;;;5.55;4.47;;;;;;;-143.37;100.00;65745.06;5073232;28;20310;-71
2021/10/20 07:55:10;;;;;;;4.50;4.05;;;;;;;-143.37;100.00;65745.06;5072016;28;20216;-71
2021/10/20 07:57:37;;;;;;;6.90;4.20;;;;;;;-143.37;100.00;65745.06;5071570;28;20237;-71
2021/10/20 08:00:05;;;;;;;4.63;4.07;;;;;;;-143.37;100.00;65745.06;5088098;28;20233;-71
2021/10/20 08:02:32;;;;;;;7.55;4.57;;;;;;;-143.37;100.00;65745.06;5072751;28;20260;-69
2021/10/20 08:04:58;;;;;;;6.20;4.18;;;;;;;-143.37;100.00;65745.06;5072728;28;20899;-70
2021/10/20 08:07:25;;;;;;;8.13;4.95;;;;;;;-143.37;100.00;65745.06;5072060;28;20566;-71
2021/10/20 08:09:52;;;;;;;6.70;4.40;;;;;;;-143.37;100.00;65745.06;5072615;28;20209;-69
2021/10/20 08:12:20;;;;;;;5.38;4.45;;;;;;;-143.37;100.00;65745.06;5072830;28;20229;-69
2021/10/20 08:14:56;;;;;;;6.80;4.25;;;;;;;-143.37;100.00;65745.06;5073325;28;20204;-71
2021/10/20 08:17:22;;;;;;;6.57;4.43;;;;;;;-143.37;100.00;65745.06;5073405;28;20205;-71
2021/10/20 08:19:49;;;;;;;6.38;4.13;;;;;;;-143.37;100.00;65745.06;5073037;28;20244;-69
2021/10/20 08:22:15;;;;;;;5.80;4.05;;;;;;;-143.37;100.00;65745.06;5072971;28;20229;-69
2021/10/20 08:24:42;;;;;;;5.55;4.03;;;;;;;-143.37;100.00;65745.06;5076105;28;20270;-69
2021/10/20 08:27:08;;;;;;;7.40;4.32;;;;;;;-143.37;100.00;65745.06;5092148;28;20246;-71
2021/10/20 08:29:36;;;;;;;5.95;4.30;;;;;;;-143.37;100.00;65745.06;5092111;28;20262;-71
2021/10/20 08:32:05;;;;;;;5.00;4.05;;;;;;;-143.37;100.00;65745.06;5092735;28;20311;-71
2021/10/20 08:34:32;;;;;;;4.53;3.78;;;;;;;-143.37;100.00;65745.06;5091546;28;20208;-70
2021/10/20 08:36:58;;;;;;;7.53;3.97;;;;;;;-143.37;100.00;65745.06;5093136;28;20672;-70
2021/10/20 08:39:26;;;;;;;7.40;4.10;;;;;;;-143.37;100.00;65745.06;5092356;28;20204;-71
2021/10/20 08:42:09;;;;;;;6.13;4.38;;;;;;;-143.37;100.00;65745.06;5091922;28;20263;-70
2021/10/20 08:44:59;;;;;;;5.75;4.15;;;;;;;-143.37;100.00;65745.06;5092092;28;20231;-72
2021/10/20 08:47:33;;;;;;;5.72;3.30;;;;;;;-143.37;100.00;65745.06;5071172;28;20633;-71
2021/10/20 08:50:05;;;;;;;6.55;4.03;;;;;;;-143.37;100.00;65745.06;5071002;28;20216;-70
2021/10/20 08:52:34;;;;;;;4.70;3.70;;;;;;;-143.37;100.00;65745.06;5070591;28;20719;-70
2021/10/20 08:55:10;;;;;;;3.80;3.33;;;;;;;-143.37;100.00;65745.06;5071862;28;20197;-70
2021/10/20 08:57:37;;;;;;;6.75;4.25;;;;;;;-143.37;100.00;65745.06;5071035;28;20271;-70
2021/10/20 09:00:08;;;;;;;3.88;3.25;;;;;;;-143.37;100.00;65745.06;5055247;28;20205;-71
2021/10/20 09:02:39;;;;;;;6.07;4.10;;;;;;;-143.37;100.00;65745.06;5078767;28;20221;-72
2021/10/20 09:05:34;;;;;;;5.07;3.97;;;;;;;-143.37;100.00;65745.06;5079745;28;20221;-71
2021/10/20 09:08:10;;;;;;;4.57;3.83;;;;;;;-143.37;100.00;65745.06;5076835;28;20220;-70
2021/10/20 09:10:36;;;;;;;5.45;3.67;;;;;;;-143.37;100.00;65745.06;5075946;28;20270;-70
2021/10/20 09:13:06;;;;;;;5.20;3.75;;;;;;;-143.37;100.00;65745.06;5075575;28;20236;-70
2021/10/20 09:15:36;;;;;;;4.93;3.97;;;;;;;-143.37;100.00;65745.06;5073124;28;20217;-69
2021/10/20 09:18:11;;;;;;;5.28;3.50;;;;;;;-143.37;100.00;65745.06;5054793;28;20216;-69
2021/10/20 09:20:51;;;;;;;4.20;3.58;;;;;;;-143.37;100.00;65745.06;5054540;28;20294;-69
2021/10/20 09:23:20;;;;;;;4.15;3.13;;;;;;;-143.37;100.00;65745.06;5070671;28;20580;-70
2021/10/20 09:25:58;;;;;;;3.83;3.30;;;;;;;-143.37;100.00;65745.06;5082989;28;20220;-71
2021/10/20 09:28:35;;;;;;;4.82;3.55;;;;;;;-143.37;100.00;65745.06;5075222;28;20205;-70
2021/10/20 09:31:25;;;;;;;4.88;3.80;;;;;;;-143.37;100.00;65745.06;5091155;28;20323;-69
2021/10/20 09:34:05;;;;;;;5.15;3.92;;;;;;;-143.37;100.00;65745.06;5091324;28;20685;-70
2021/10/20 09:36:35;;;;;;;5.75;4.10;;;;;;;-143.37;100.00;65745.06;5091506;28;20210;-71
2021/10/20 09:39:08;;;;;;;6.45;4.13;;;;;;;-143.37;100.00;65745.06;5094095;28;20208;-70
2021/10/20 09:41:34;;;;;;;5.45;3.70;;;;;;;-143.37;100.00;65745.06;5091865;28;20286;-71
2021/10/20 09:44:01;;;;;;;3.83;3.13;;;;;;;-143.37;100.00;65745.06;5092976;28;20291;-71
2021/10/20 09:46:31;;;;;;;5.70;3.97;;;;;;;-143.37;100.00;65745.06;5085435;28;20308;-70
2021/10/20 09:49:02;;;;;;;6.07;3.50;;;;;;;-143.37;100.00;65745.06;5070208;28;20557;-69
2021/10/20 09:51:28;;;;;;;3.95;2.95;;;;;;;-143.37;100.00;65745.06;5068860;28;20319;-68
2021/10/20 09:53:55;;;;;;;4.80;3.33;;;;;;;-143.37;100.00;65745.06;5070280;28;20294;-70
2021/10/20 09:56:23;;;;;;;4.55;3.45;;;;;;;-143.37;100.00;65745.06;5073463;28;20744;-70
2021/10/20 09:58:50;;;;;;;4.55;3.33;;;;;;;-143.37;100.00;65745.06;5075481;28;20300;-70
2021/10/20 10:01:18;;;;;;;4.90;3.13;;;;;;;-143.37;100.00;65745.06;5073489;28;20670;-70
2021/10/20 10:03:46;;;;;;;3.22;2.20;;;;;;;-143.37;100.00;65745.06;5076859;28;20208;-70
2021/10/20 10:06:13;;;;;;;3.10;2.17;;;;;;;-143.37;100.00;65745.06;5077006;28;20248;-69
2021/10/20 10:08:40;;;;;;;6.43;1.83;;;;;;;-143.37;100.00;65745.06;5075506;28;20296;-70
2021/10/20 10:11:06;;;;;;;3.08;1.85;;;;;;;-143.37;100.00;65745.06;5072885;28;20205;-71
2021/10/20 10:13:39;;;;;;;4.20;2.33;;;;;;;-143.37;100.00;65745.06;5074489;28;20299;-70
2021/10/20 10:16:07;;;;;;;2.75;2.40;;;;;;;-143.37;100.00;65745.06;5074160;28;20239;-70
2021/10/20 10:18:39;;;;;;;2.65;1.75;;;;;;;-143.37;100.00;65745.06;5072956;28;20209;-70
2021/10/20 10:21:35;;;;;;;3.35;2.10;;;;;;;-143.37;100.00;65745.06;5073216;28;20670;-69
2021/10/20 10:24:13;;;;;;;3.38;2.30;;;;;;;-143.37;100.00;65745.06;5073934;28;20232;-69
2021/10/20 10:27:16;;;;;;;2.83;2.10;;;;;;;-143.37;100.00;65745.06;5093582;28;20285;-70
2021/10/20 10:29:54;;;;;;;5.43;2.00;;;;;;;-143.37;100.00;65745.06;5070472;28;20312;-70
2021/10/20 10:32:41;;;;;;;2.40;1.95;;;;;;;-143.37;100.00;65745.06;5094010;28;20235;-70
2021/10/20 10:35:08;;;;;;;4.45;1.92;;;;;;;-143.37;100.00;65745.06;5093676;28;20212;-68
2021/10/20 10:37:36;;;;;;;2.72;2.10;;;;;;;-143.37;100.00;65745.06;5093487;28;20262;-70
2021/10/20 10:40:18;;;;;;;3.88;2.45;;;;;;;-143.37;100.00;65745.06;5093376;28;20201;-70
2021/10/20 10:42:46;;;;;;;3.55;2.38;;;;;;;-143.37;100.00;65745.06;5093983;28;20270;-70
2021/10/20 10:45:22;;;;;;;2.70;1.92;;;;;;;-143.37;100.00;65745.06;5094151;28;20230;-70
2021/10/20 10:48:05;;;;;;;3.00;2.25;;;;;;;-143.37;100.00;65745.06;5074910;28;20566;-70
2021/10/20 10:50:49;;;;;;;2.25;1.70;;;;;;;-143.37;100.00;65745.06;5071544;28;20893;-71
2021/10/20 10:53:50;;;;;;;4.40;2.50;;;;;;;-143.37;100.00;65745.06;5072110;28;20201;-70
2021/10/20 10:56:17;;;;;;;3.05;2.20;;;;;;;-143.37;100.00;65745.06;5069501;28;20658;-71
2021/10/20 10:59:02;;;;;;;6.10;3.58;;;;;;;-143.37;100.00;65745.06;5073102;28;20233;-71
2021/10/20 11:01:48;;;;;;;4.05;2.80;;;;;;;-143.37;100.00;65745.06;5071212;28;20229;-72
2021/10/20 11:04:35;;;;;;;7.13;3.67;;;;;;;-143.37;100.00;65745.06;5073161;28;20205;-72
2021/10/20 11:07:03;;;;;;;6.60;2.70;;;;;;;-143.37;100.00;65745.06;5072615;28;20316;-70
2021/10/20 11:09:32;;;;;;;3.97;2.45;;;;;;;-143.37;100.00;65745.06;5072107;28;20213;-69
2021/10/20 11:12:02;;;;;;;3.65;2.53;;;;;;;-143.37;100.00;65745.06;5072974;28;20621;-69
2021/10/20 11:14:31;;;;;;;4.18;2.22;;;;;;;-143.37;100.00;65745.06;5071576;28;20747;-72
2021/10/20 11:17:12;;;;;;;4.05;2.30;;;;;;;-143.37;100.00;65745.06;5071461;28;20299;-72
2021/10/20 11:19:39;;;;;;;5.25;2.40;;;;;;;-143.37;100.00;65745.06;5072018;28;20622;-70
2021/10/20 11:22:18;;;;;;;3.92;2.80;;;;;;;-143.37;100.00;65745.06;5072598;28;20225;-70
2021/10/20 11:24:47;;;;;;;4.75;2.78;;;;;;;-143.37;100.00;65745.06;5076145;28;20722;-72
2021/10/20 11:27:16;;;;;;;3.72;2.00;;;;;;;-143.37;100.00;65745.06;5092844;28;20315;-71
2021/10/20 11:29:45;;;;;;;5.35;2.50;;;;;;;-143.37;100.00;65745.06;5092165;28;20251;-72
2021/10/20 11:32:14;;;;;;;7.10;2.22;;;;;;;-143.37;100.00;65745.06;5092719;28;20228;-70
2021/10/20 11:34:43;;;;;;;3.55;2.45;;;;;;;-143.37;100.00;65745.06;5092877;28;20248;-72
2021/10/20 11:37:10;;;;;;;4.88;2.58;;;;;;;-143.37;100.00;65745.06;5092194;28;20228;-72
2021/10/20 11:39:38;;;;;;;3.17;2.10;;;;;;;-143.37;100.00;65745.06;5092757;28;20215;-71
2021/10/20 11:42:09;;;;;;;3.50;2.47;;;;;;;-143.37;100.00;65745.06;5071532;28;20241;-71
2021/10/20 11:44:37;;;;;;;4.68;2.45;;;;;;;-143.37;100.00;65745.06;5073326;28;20675;-72
2021/10/20 11:47:07;;;;;;;4.60;2.45;;;;;;;-143.37;100.00;65745.06;5087032;28;20737;-71
2021/10/20 11:49:35;;;;;;;4.93;3.13;;;;;;;-143.37;100.00;65745.06;5092000;28;20303;-68
2021/10/20 11:52:06;;;;;;;5.03;2.70;;;;;;;-143.37;100.00;65745.06;5074684;28;20234;-72
2021/10/20 11:54:36;;;;;;;3.97;2.22;;;;;;;-143.37;100.00;65745.06;5092035;28;20548;-72
2021/10/20 11:57:05;;;;;;;3.13;2.33;;;;;;;-143.37;100.00;65745.06;5091128;28;20292;-72
2021/10/20 11:59:31;;;;;;;3.92;2.30;;;;;;;-143.37;100.00;65745.06;5090761;28;20212;-72